createdAt,value
2022-11-27T00:02:20.503Z,102278.03
2022-11-27T00:04:47.036Z,102284.44
2022-11-27T00:07:13.678Z,102290.03
2022-11-27T00:09:40.434Z,102272.75
2022-11-27T00:12:07.247Z,102283.69
2022-11-27T00:14:33.755Z,102261.88
2022-11-27T00:17:00.988Z,102280.94
2022-11-27T00:19:27.641Z,102277.16
2022-11-27T00:21:54.191Z,102273.63
2022-11-27T00:24:20.688Z,102258.78
2022-11-27T00:26:49.725Z,102252.63
2022-11-27T00:29:16.244Z,102269.53
2022-11-27T00:31:43.424Z,102268.72
2022-11-27T00:34:11.481Z,102253.69
2022-11-27T00:36:39.280Z,102267.97
2022-11-27T00:39:06.985Z,102266.38
2022-11-27T00:41:34.031Z,102256.16
2022-11-27T00:44:00.577Z,102257.91
2022-11-27T00:46:30.240Z,102259.84
2022-11-27T00:49:03.169Z,102265.00
2022-11-27T00:51:30.229Z,102256.31
2022-11-27T00:53:57.397Z,102266.00
2022-11-27T00:56:27.467Z,102261.81
2022-11-27T00:58:54.456Z,102261.91
2022-11-27T01:01:27.596Z,102260.19
2022-11-27T01:03:56.161Z,102261.13
2022-11-27T01:06:22.966Z,102267.75
2022-11-27T01:08:49.578Z,102262.25
2022-11-27T01:11:19.227Z,102260.19
2022-11-27T01:13:46.511Z,102264.06
2022-11-27T01:16:16.425Z,102266.00
2022-11-27T01:18:45.117Z,102267.72
2022-11-27T01:21:13.172Z,102265.91
2022-11-27T01:23:40.188Z,102259.13
2022-11-27T01:26:08.577Z,102257.81
2022-11-27T01:28:36.076Z,102262.41
2022-11-27T01:31:08.091Z,102232.09
2022-11-27T01:33:35.136Z,102234.84
2022-11-27T01:36:04.118Z,102229.94
2022-11-27T01:38:31.562Z,102202.94
2022-11-27T01:41:16.733Z,102209.59
2022-11-27T01:43:48.002Z,102222.28
2022-11-27T01:46:37.415Z,102233.69
2022-11-27T01:49:22.359Z,102218.78
2022-11-27T01:52:09.032Z,102229.25
2022-11-27T01:54:45.566Z,102225.25
2022-11-27T01:57:18.076Z,102213.16
2022-11-27T01:59:46.740Z,102219.59
2022-11-27T02:02:13.505Z,102218.00
2022-11-27T02:04:40.261Z,102202.66
2022-11-27T02:07:06.983Z,102204.31
2022-11-27T02:09:33.857Z,102211.56
2022-11-27T02:12:03.104Z,102208.66
2022-11-27T02:14:32.439Z,102203.16
2022-11-27T02:17:22.016Z,102197.88
2022-11-27T02:20:03.812Z,102193.16
2022-11-27T02:22:42.461Z,102189.81
2022-11-27T02:25:42.884Z,102182.44
2022-11-27T02:28:45.553Z,102191.69
2022-11-27T02:31:47.644Z,102187.34
2022-11-27T02:34:32.704Z,102184.44
2022-11-27T02:37:31.824Z,102186.38
2022-11-27T02:40:34.035Z,102187.78
2022-11-27T02:43:09.563Z,102179.41
2022-11-27T02:45:44.143Z,102176.66
2022-11-27T02:48:13.716Z,102170.91
2022-11-27T02:50:43.212Z,102167.34
2022-11-27T02:53:19.335Z,102165.91
2022-11-27T02:55:48.466Z,102158.16
2022-11-27T02:58:18.143Z,102146.53
2022-11-27T03:00:46.460Z,102143.66
2022-11-27T03:03:18.221Z,102150.63
2022-11-27T03:05:48.112Z,102147.72
2022-11-27T03:08:17.681Z,102148.06
2022-11-27T03:10:56.762Z,102142.63
2022-11-27T03:13:23.828Z,102132.66
2022-11-27T03:15:54.380Z,102134.91
2022-11-27T03:18:34.897Z,102122.03
2022-11-27T03:21:19.013Z,102119.47
2022-11-27T03:23:45.703Z,102104.13
2022-11-27T03:26:12.175Z,102093.81
2022-11-27T03:28:39.469Z,102103.88
2022-11-27T03:31:06.005Z,102104.31
2022-11-27T03:33:32.963Z,102102.72
2022-11-27T03:35:59.447Z,102103.53
2022-11-27T03:38:25.972Z,102116.13
2022-11-27T03:41:05.970Z,102113.97
2022-11-27T03:43:41.889Z,102116.72
2022-11-27T03:46:19.728Z,102118.81
2022-11-27T03:49:08.381Z,102119.63
2022-11-27T03:51:41.150Z,102114.75
2022-11-27T03:54:07.541Z,102123.78
2022-11-27T03:56:38.065Z,102126.53
2022-11-27T03:59:13.763Z,102122.31
2022-11-27T04:01:41.010Z,102116.16
2022-11-27T04:04:07.975Z,102116.28
2022-11-27T04:06:34.527Z,102106.09
2022-11-27T04:09:01.130Z,102103.34
2022-11-27T04:11:27.688Z,102098.19
2022-11-27T04:13:54.173Z,102081.38
2022-11-27T04:16:20.730Z,102075.88
2022-11-27T04:18:47.264Z,102066.81
2022-11-27T04:21:13.810Z,102053.28
2022-11-27T04:23:40.825Z,102051.00
2022-11-27T04:26:07.264Z,102060.75
2022-11-27T04:28:33.852Z,102063.50
2022-11-27T04:31:00.321Z,102061.84
2022-11-27T04:33:27.275Z,102051.91
2022-11-27T04:35:54.139Z,102047.00
2022-11-27T04:38:21.546Z,102032.66
2022-11-27T04:40:48.532Z,102033.19
2022-11-27T04:43:15.056Z,102033.44
2022-11-27T04:45:41.586Z,102041.00
2022-11-27T04:48:08.070Z,102050.00
2022-11-27T04:50:34.557Z,102037.59
2022-11-27T04:53:01.130Z,102021.72
2022-11-27T04:55:27.688Z,102015.06
2022-11-27T04:57:54.171Z,102000.94
2022-11-27T05:00:21.226Z,102013.56
2022-11-27T05:02:47.782Z,102003.38
2022-11-27T05:05:14.350Z,101981.59
2022-11-27T05:07:40.815Z,101993.75
2022-11-27T05:10:08.186Z,101990.66
2022-11-27T05:12:34.757Z,102000.28
2022-11-27T05:15:04.479Z,101991.34
2022-11-27T05:17:31.448Z,101996.88
2022-11-27T05:19:57.903Z,102000.97
2022-11-27T05:22:24.361Z,101989.63
2022-11-27T05:24:50.872Z,101993.53
2022-11-27T05:27:17.316Z,101993.19
2022-11-27T05:29:43.843Z,101991.34
2022-11-27T05:32:10.335Z,101986.66
2022-11-27T05:34:36.798Z,101973.00
2022-11-27T05:37:03.291Z,101983.75
2022-11-27T05:39:29.766Z,101982.63
2022-11-27T05:41:56.289Z,101975.63
2022-11-27T05:44:22.789Z,101978.03
2022-11-27T05:46:49.313Z,101978.81
2022-11-27T05:49:16.331Z,101966.81
2022-11-27T05:51:50.359Z,101974.47
2022-11-27T05:54:17.538Z,101968.28
2022-11-27T05:56:44.057Z,101972.28
2022-11-27T05:59:10.931Z,101963.59
2022-11-27T06:01:37.578Z,101965.88
2022-11-27T06:04:04.272Z,101960.72
2022-11-27T06:06:30.908Z,101959.00
2022-11-27T06:08:57.425Z,101958.28
2022-11-27T06:11:24.163Z,101955.09
2022-11-27T06:13:51.152Z,101944.22
2022-11-27T06:16:20.544Z,101954.16
2022-11-27T06:18:50.560Z,101954.28
2022-11-27T06:21:17.440Z,101941.56
2022-11-27T06:23:44.589Z,101941.09
2022-11-27T06:26:19.599Z,101946.84
2022-11-27T06:28:47.549Z,101942.47
2022-11-27T06:31:18.255Z,101944.78
2022-11-27T06:33:46.603Z,101942.72
2022-11-27T06:36:13.335Z,101922.53
2022-11-27T06:38:39.990Z,101936.53
2022-11-27T06:41:11.816Z,101934.81
2022-11-27T06:43:38.651Z,101943.41
2022-11-27T06:46:06.813Z,101939.06
2022-11-27T06:48:34.160Z,101940.19
2022-11-27T06:51:06.184Z,101930.78
2022-11-27T06:53:35.865Z,101936.41
2022-11-27T06:56:03.963Z,101938.72
2022-11-27T06:58:31.379Z,101921.38
2022-11-27T07:01:02.978Z,101928.03
2022-11-27T07:03:30.075Z,101922.97
2022-11-27T07:05:59.970Z,101925.28
2022-11-27T07:08:26.503Z,101917.47
2022-11-27T07:10:53.036Z,101914.38
2022-11-27T07:13:19.775Z,101912.19
2022-11-27T07:15:46.549Z,101908.75
2022-11-27T07:18:13.094Z,101905.41
2022-11-27T07:20:39.866Z,101910.69
2022-11-27T07:23:06.626Z,101908.81
2022-11-27T07:25:33.578Z,101906.28
2022-11-27T07:28:00.217Z,101906.06
2022-11-27T07:30:26.925Z,101896.97
2022-11-27T07:32:53.394Z,101899.25
2022-11-27T07:35:19.956Z,101902.22
2022-11-27T07:37:46.407Z,101887.03
2022-11-27T07:40:14.950Z,101882.06
2022-11-27T07:42:41.680Z,101889.72
2022-11-27T07:45:09.006Z,101875.94
2022-11-27T07:47:35.606Z,101885.69
2022-11-27T07:50:02.502Z,101884.63
2022-11-27T07:52:29.038Z,101886.66
2022-11-27T07:54:55.579Z,101893.44
2022-11-27T07:57:22.086Z,101873.59
2022-11-27T07:59:48.594Z,101875.47
2022-11-27T08:02:15.511Z,101865.53
2022-11-27T08:04:42.425Z,101868.22
2022-11-27T08:07:09.118Z,101866.81
2022-11-27T08:09:35.683Z,101861.38
2022-11-27T08:12:02.116Z,101850.34
2022-11-27T08:14:28.641Z,101849.38
2022-11-27T08:16:55.352Z,101852.22
2022-11-27T08:19:22.211Z,101859.09
2022-11-27T08:21:48.726Z,101854.09
2022-11-27T08:24:15.180Z,101845.81
2022-11-27T08:26:42.311Z,101848.50
2022-11-27T08:29:12.798Z,101842.69
2022-11-27T08:31:39.764Z,101839.16
2022-11-27T08:34:06.418Z,101831.81
2022-11-27T08:36:32.963Z,101825.59
2022-11-27T08:38:59.470Z,101839.19
2022-11-27T08:41:25.906Z,101828.59
2022-11-27T08:43:52.429Z,101837.03
2022-11-27T08:46:19.072Z,101830.88
2022-11-27T08:48:45.604Z,101834.91
2022-11-27T08:51:15.454Z,101823.78
2022-11-27T08:53:44.379Z,101821.44
2022-11-27T08:56:23.600Z,101822.78
2022-11-27T08:58:50.571Z,101839.25
2022-11-27T09:01:20.245Z,101827.22
2022-11-27T09:03:47.150Z,101823.28
2022-11-27T09:06:16.834Z,101821.47
2022-11-27T09:08:44.267Z,101822.56
2022-11-27T09:11:13.281Z,101830.63
2022-11-27T09:13:40.455Z,101824.06
2022-11-27T09:16:11.228Z,101809.84
2022-11-27T09:18:37.777Z,101816.28
2022-11-27T09:21:07.421Z,101808.66
2022-11-27T09:23:34.493Z,101803.22
2022-11-27T09:26:02.413Z,101812.53
2022-11-27T09:28:31.589Z,101805.47
2022-11-27T09:31:00.938Z,101801.47
2022-11-27T09:33:29.136Z,101801.53
2022-11-27T09:35:55.751Z,101794.41
2022-11-27T09:38:23.640Z,101794.84
2022-11-27T09:40:52.491Z,101787.78
2022-11-27T09:43:27.691Z,101786.59
2022-11-27T09:46:00.831Z,101787.84
2022-11-27T09:48:48.809Z,101784.47
2022-11-27T09:51:31.928Z,101775.88
2022-11-27T09:54:05.688Z,101780.03
2022-11-27T09:56:35.665Z,101785.69
2022-11-27T09:59:03.985Z,101785.06
2022-11-27T10:01:42.020Z,101785.19
2022-11-27T10:04:15.041Z,101775.06
2022-11-27T10:07:01.788Z,101778.03
2022-11-27T10:09:49.268Z,101774.25
2022-11-27T10:12:58.362Z,101778.69
2022-11-27T10:15:27.831Z,101768.19
2022-11-27T10:18:08.928Z,101771.75
2022-11-27T10:20:41.067Z,101764.81
2022-11-27T10:23:25.584Z,101770.34
2022-11-27T10:25:57.141Z,101769.22
2022-11-27T10:28:46.132Z,101762.63
2022-11-27T10:31:18.563Z,101765.06
2022-11-27T10:33:51.902Z,101758.38
2022-11-27T10:36:29.860Z,101762.91
2022-11-27T10:38:58.181Z,101753.75
2022-11-27T10:44:29.564Z,101754.31
2022-11-27T10:47:02.804Z,101750.00
2022-11-27T10:49:29.761Z,101748.78
2022-11-27T10:51:56.548Z,101750.72
2022-11-27T10:54:37.354Z,101739.97
2022-11-27T10:57:28.870Z,101737.97
2022-11-27T11:00:07.843Z,101730.25
2022-11-27T11:02:38.461Z,101736.16
2022-11-27T11:05:34.680Z,101712.72
2022-11-27T11:08:06.664Z,101709.97
2022-11-27T11:10:38.489Z,101719.03
2022-11-27T11:13:14.470Z,101708.81
2022-11-27T11:16:29.394Z,101701.34
2022-11-27T11:18:58.897Z,101690.94
2022-11-27T11:21:32.153Z,101689.50
2022-11-27T11:24:14.423Z,101685.91
2022-11-27T11:26:47.610Z,101677.91
2022-11-27T11:29:45.120Z,101686.28
2022-11-27T11:32:16.770Z,101676.78
2022-11-27T11:34:53.994Z,101667.34
2022-11-27T11:37:30.449Z,101667.66
2022-11-27T11:40:05.074Z,101657.38
2022-11-27T11:42:34.068Z,101657.09
2022-11-27T11:45:13.311Z,101640.44
2022-11-27T11:47:48.180Z,101644.00
2022-11-27T11:50:27.021Z,101643.59
2022-11-27T11:53:12.951Z,101631.63
2022-11-27T11:55:54.827Z,101624.91
2022-11-27T11:58:38.434Z,101605.91
2022-11-27T12:01:29.514Z,101601.13
2022-11-27T12:04:07.583Z,101596.03
2022-11-27T12:06:37.396Z,101586.53
2022-11-27T12:09:18.968Z,101573.88
2022-11-27T12:12:06.857Z,101569.88
2022-11-27T12:14:55.360Z,101555.59
2022-11-27T12:17:40.738Z,101554.72
2022-11-27T12:20:10.180Z,101539.28
2022-11-27T12:23:00.364Z,101521.34
2022-11-27T12:25:51.638Z,101504.34
2022-11-27T12:28:18.811Z,101503.16
2022-11-27T12:31:08.984Z,101483.22
2022-11-27T12:34:06.129Z,101485.59
2022-11-27T12:36:51.271Z,101489.88
2022-11-27T12:39:29.976Z,101483.53
2022-11-27T12:41:59.362Z,101504.88
2022-11-27T12:44:30.494Z,101531.38
2022-11-27T12:47:03.044Z,101521.16
2022-11-27T12:49:40.049Z,101515.63
2022-11-27T12:52:31.570Z,101514.81
2022-11-27T12:55:15.940Z,101513.25
2022-11-27T12:57:56.762Z,101531.41
2022-11-27T13:00:27.066Z,101514.81
2022-11-27T13:03:06.507Z,101514.75
2022-11-27T13:05:45.414Z,101505.28
2022-11-27T13:08:38.824Z,101507.19
2022-11-27T13:11:10.065Z,101497.31
2022-11-27T13:13:50.097Z,101494.22
2022-11-27T13:16:35.274Z,101483.97
2022-11-27T13:19:22.648Z,101469.25
2022-11-27T13:21:50.451Z,101476.44
2022-11-27T13:24:17.002Z,101474.91
2022-11-27T13:27:15.851Z,101473.72
2022-11-27T13:29:59.729Z,101465.78
2022-11-27T13:32:33.412Z,101461.81
2022-11-27T13:35:04.102Z,101451.13
2022-11-27T13:37:32.512Z,101448.78
2022-11-27T13:40:12.717Z,101443.19
2022-11-27T13:42:45.377Z,101439.28
2022-11-27T13:45:21.750Z,101437.28
2022-11-27T13:47:50.626Z,101448.41
2022-11-27T13:50:20.463Z,101446.84
2022-11-27T13:52:54.684Z,101437.72
2022-11-27T13:55:38.241Z,101440.91
2022-11-27T13:58:06.847Z,101438.16
2022-11-27T14:00:40.144Z,101429.84
2022-11-27T14:03:13.068Z,101426.69
2022-11-27T14:05:45.094Z,101427.50
2022-11-27T14:08:31.492Z,101430.66
2022-11-27T14:11:02.601Z,101443.72
2022-11-27T14:13:40.971Z,101430.66
2022-11-27T14:16:16.740Z,101436.56
